Terminal Aerodrome Forecast
Issued by NWS

Home | Current Version | Previous Version | Text Only | Print | Product List | Glossary On
Versions: 1 2 3 4 5 6 7 8 9 10 11 12 13 14 15 16 17
915
FTUS43 KICT 291720
TAFRSL
TAF
KRSL 291720Z 2918/3018 04017G23KT 5SM -SHRA VCTS OVC009CB
      TEMPO 2918/2922 3SM TSRA SCT007 OVC012CB
     FM292200 06014G21KT 5SM -SHRA VCTS OVC009CB
      TEMPO 2922/3002 3SM TSRA SCT007 OVC012CB
     FM300200 03014G20KT 4SM BR VCTS OVC004CB
     FM300700 32013KT 3SM BR OVC006
     FM301500 29016KT P6SM SCT040=

USA.gov is the U.S. government's official web portal to all federal, state and local government web resources and services.